Aviation Digital Data Service (ADDS)

Output produced by METARs form (1531 UTC 17 November 2019)
found at http://aviationweather.gov/metar/data/
 
METAR text: EGJB 171520Z 02008KT 9999 FEW026 08/04 Q1010
Conditions at: EGJB (GUERNSEY AIRPORT, GB) observed 1520 UTC 17 November 2019
Temperature: 8.0°C (46°F)
Dewpoint: 4.0°C (39°F) [RH = 76%]
Pressure (altimeter): 29.82 inches Hg (1010.0 mb)
Winds: from the NNE (20 degrees) at 9 MPH (8 knots; 4.1 m/s)
Visibility: 6 or more miles (10+ km)
Ceiling: at least 12,000 feet AGL
Clouds: few clouds at 2600 feet AGL
Weather: no significant weather observed at this time

METAR text: EGJB 171450Z 02009KT 9999 FEW027 09/04 Q1010
Conditions at: EGJB (GUERNSEY AIRPORT, GB) observed 1450 UTC 17 November 2019
Temperature: 9.0°C (48°F)
Dewpoint: 4.0°C (39°F) [RH = 71%]
Pressure (altimeter): 29.82 inches Hg (1010.0 mb)
Winds: from the NNE (20 degrees) at 10 MPH (9 knots; 4.6 m/s)
Visibility: 6 or more miles (10+ km)
Ceiling: at least 12,000 feet AGL
Clouds: few clouds at 2700 feet AGL
Weather: no significant weather observed at this time

Forecast for: EGJB (GUERNSEY AIRPORT, GB)
Text: TAF EGJB 171404Z 1715/1800 02011KT 9999 SCT025
Forecast period: 1500 UTC 17 November 2019 to 0000 UTC 18 November 2019
Forecast type: FROM: standard forecast or significant change
Winds: from the NNE (20 degrees) at 13 MPH (11 knots; 5.7 m/s)
Visibility: 6 or more miles 10+ km)
Ceiling: at least 12,000 feet AGL
Clouds: scattered clouds at 2500 feet AGL
Weather: no significant weather forecast for this period
Text: PROB30
Forecast period: 1500 UTC 17 November 2019 to 0000 UTC 18 November 2019
Forecast type: TEMPORARY: The following changes expected for less than half the time period
Visibility: 4 miles (7 km)
Ceiling: 1500 feet AGL
Clouds: broken clouds at 1500 feet AGL
Weather: SHRA  (rain showers)